sensor_id;sensor_type;location;lat;lon;timestamp;P1;durP1;ratioP1;P2;durP2;ratioP2
70008;SDS011;59542;37.950;-122.338;2023-07-31T00:00:49;13.18;;;4.90;;
70008;SDS011;59542;37.950;-122.338;2023-07-31T00:03:15;17.63;;;5.93;;
70008;SDS011;59542;37.950;-122.338;2023-07-31T00:05:41;11.25;;;4.63;;
70008;SDS011;59542;37.950;-122.338;2023-07-31T00:08:07;16.15;;;6.25;;
70008;SDS011;59542;37.950;-122.338;2023-07-31T00:10:34;15.02;;;5.53;;
70008;SDS011;59542;37.950;-122.338;2023-07-31T00:13:00;15.48;;;5.55;;
70008;SDS011;59542;37.950;-122.338;2023-07-31T00:15:26;17.90;;;5.50;;
70008;SDS011;59542;37.950;-122.338;2023-07-31T00:17:52;15.50;;;5.55;;
70008;SDS011;59542;37.950;-122.338;2023-07-31T00:20:19;14.27;;;4.68;;
70008;SDS011;59542;37.950;-122.338;2023-07-31T00:22:45;17.17;;;5.75;;
70008;SDS011;59542;37.950;-122.338;2023-07-31T00:25:11;15.20;;;5.15;;
70008;SDS011;59542;37.950;-122.338;2023-07-31T00:27:37;14.93;;;5.88;;
70008;SDS011;59542;37.950;-122.338;2023-07-31T00:30:04;15.50;;;5.22;;
70008;SDS011;59542;37.950;-122.338;2023-07-31T00:32:31;15.38;;;5.53;;
70008;SDS011;59542;37.950;-122.338;2023-07-31T00:34:57;14.23;;;5.00;;
70008;SDS011;59542;37.950;-122.338;2023-07-31T00:37:23;18.77;;;5.70;;
70008;SDS011;59542;37.950;-122.338;2023-07-31T00:39:49;15.05;;;6.38;;
70008;SDS011;59542;37.950;-122.338;2023-07-31T00:42:15;13.05;;;5.63;;
70008;SDS011;59542;37.950;-122.338;2023-07-31T00:44:42;18.00;;;6.63;;
70008;SDS011;59542;37.950;-122.338;2023-07-31T00:47:08;13.52;;;5.95;;
70008;SDS011;59542;37.950;-122.338;2023-07-31T00:49:34;14.77;;;5.35;;
70008;SDS011;59542;37.950;-122.338;2023-07-31T00:52:00;18.08;;;5.60;;
70008;SDS011;59542;37.950;-122.338;2023-07-31T00:54:27;20.70;;;6.70;;
70008;SDS011;59542;37.950;-122.338;2023-07-31T00:56:54;16.65;;;6.22;;
70008;SDS011;59542;37.950;-122.338;2023-07-31T00:59:21;18.33;;;6.85;;
70008;SDS011;59542;37.950;-122.338;2023-07-31T01:01:47;27.38;;;7.65;;
70008;SDS011;59542;37.950;-122.338;2023-07-31T01:04:13;19.73;;;7.50;;
70008;SDS011;59542;37.950;-122.338;2023-07-31T01:09:27;23.90;;;7.07;;
70008;SDS011;59542;37.950;-122.338;2023-07-31T01:12:00;18.60;;;6.68;;
70008;SDS011;59542;37.950;-122.338;2023-07-31T01:14:28;17.10;;;6.05;;
70008;SDS011;59542;37.950;-122.338;2023-07-31T01:16:54;19.40;;;7.38;;
70008;SDS011;59542;37.950;-122.338;2023-07-31T01:19:22;20.45;;;7.00;;
70008;SDS011;59542;37.950;-122.338;2023-07-31T01:21:58;18.75;;;6.72;;
70008;SDS011;59542;37.950;-122.338;2023-07-31T01:27:30;18.17;;;6.72;;
70008;SDS011;59542;37.950;-122.338;2023-07-31T01:32:35;16.45;;;6.82;;
70008;SDS011;59542;37.950;-122.338;2023-07-31T01:35:05;16.58;;;6.82;;
70008;SDS011;59542;37.950;-122.338;2023-07-31T01:37:32;19.15;;;6.45;;
70008;SDS011;59542;37.950;-122.338;2023-07-31T01:39:58;17.58;;;6.28;;
70008;SDS011;59542;37.950;-122.338;2023-07-31T01:42:25;19.33;;;6.85;;
70008;SDS011;59542;37.950;-122.338;2023-07-31T01:44:51;13.73;;;5.85;;
70008;SDS011;59542;37.950;-122.338;2023-07-31T01:47:17;14.20;;;6.10;;
70008;SDS011;59542;37.950;-122.338;2023-07-31T01:49:43;19.52;;;6.85;;
70008;SDS011;59542;37.950;-122.338;2023-07-31T01:52:10;14.95;;;5.97;;
70008;SDS011;59542;37.950;-122.338;2023-07-31T01:54:36;17.08;;;6.57;;
70008;SDS011;59542;37.950;-122.338;2023-07-31T01:57:02;23.80;;;7.13;;
70008;SDS011;59542;37.950;-122.338;2023-07-31T01:59:29;19.00;;;6.75;;
70008;SDS011;59542;37.950;-122.338;2023-07-31T02:01:55;17.70;;;6.93;;
70008;SDS011;59542;37.950;-122.338;2023-07-31T02:04:21;17.63;;;6.25;;
70008;SDS011;59542;37.950;-122.338;2023-07-31T02:06:48;23.77;;;7.78;;
70008;SDS011;59542;37.950;-122.338;2023-07-31T02:09:14;17.48;;;7.05;;
70008;SDS011;59542;37.950;-122.338;2023-07-31T02:11:40;24.25;;;6.82;;
70008;SDS011;59542;37.950;-122.338;2023-07-31T02:14:07;18.92;;;7.03;;
70008;SDS011;59542;37.950;-122.338;2023-07-31T02:16:33;22.75;;;7.65;;
70008;SDS011;59542;37.950;-122.338;2023-07-31T02:18:59;19.58;;;6.53;;
70008;SDS011;59542;37.950;-122.338;2023-07-31T02:21:26;22.27;;;7.00;;
70008;SDS011;59542;37.950;-122.338;2023-07-31T02:23:52;16.60;;;5.78;;
70008;SDS011;59542;37.950;-122.338;2023-07-31T02:26:18;17.77;;;6.90;;
70008;SDS011;59542;37.950;-122.338;2023-07-31T02:28:45;20.67;;;6.50;;
70008;SDS011;59542;37.950;-122.338;2023-07-31T02:31:11;15.13;;;5.90;;
70008;SDS011;59542;37.950;-122.338;2023-07-31T02:33:37;16.80;;;5.65;;
70008;SDS011;59542;37.950;-122.338;2023-07-31T02:36:04;15.95;;;6.13;;
70008;SDS011;59542;37.950;-122.338;2023-07-31T02:38:30;28.58;;;7.05;;
70008;SDS011;59542;37.950;-122.338;2023-07-31T02:40:56;17.60;;;5.70;;
70008;SDS011;59542;37.950;-122.338;2023-07-31T02:43:23;20.67;;;6.05;;
70008;SDS011;59542;37.950;-122.338;2023-07-31T02:45:52;19.85;;;6.90;;
70008;SDS011;59542;37.950;-122.338;2023-07-31T02:48:19;21.10;;;7.13;;
70008;SDS011;59542;37.950;-122.338;2023-07-31T02:50:47;24.02;;;7.43;;
70008;SDS011;59542;37.950;-122.338;2023-07-31T02:53:13;22.77;;;7.78;;
70008;SDS011;59542;37.950;-122.338;2023-07-31T02:55:42;20.95;;;7.40;;
70008;SDS011;59542;37.950;-122.338;2023-07-31T02:58:09;17.90;;;6.65;;
70008;SDS011;59542;37.950;-122.338;2023-07-31T03:00:35;21.95;;;7.22;;
70008;SDS011;59542;37.950;-122.338;2023-07-31T03:03:01;23.20;;;7.38;;
70008;SDS011;59542;37.950;-122.338;2023-07-31T03:05:28;23.10;;;7.43;;
70008;SDS011;59542;37.950;-122.338;2023-07-31T03:07:54;22.98;;;7.72;;
70008;SDS011;59542;37.950;-122.338;2023-07-31T03:10:20;22.42;;;7.38;;
70008;SDS011;59542;37.950;-122.338;2023-07-31T03:12:47;27.38;;;8.45;;
70008;SDS011;59542;37.950;-122.338;2023-07-31T03:15:13;23.38;;;7.88;;
70008;SDS011;59542;37.950;-122.338;2023-07-31T03:17:40;17.15;;;7.78;;
70008;SDS011;59542;37.950;-122.338;2023-07-31T03:20:06;29.25;;;8.27;;
70008;SDS011;59542;37.950;-122.338;2023-07-31T03:22:33;22.55;;;8.13;;
70008;SDS011;59542;37.950;-122.338;2023-07-31T03:25:01;23.08;;;8.35;;
70008;SDS011;59542;37.950;-122.338;2023-07-31T03:27:28;20.83;;;7.63;;
70008;SDS011;59542;37.950;-122.338;2023-07-31T03:29:54;23.63;;;8.02;;
70008;SDS011;59542;37.950;-122.338;2023-07-31T03:32:21;21.63;;;8.65;;
70008;SDS011;59542;37.950;-122.338;2023-07-31T03:34:47;26.20;;;8.02;;
70008;SDS011;59542;37.950;-122.338;2023-07-31T03:37:13;29.75;;;9.13;;
70008;SDS011;59542;37.950;-122.338;2023-07-31T03:39:39;20.80;;;7.90;;
70008;SDS011;59542;37.950;-122.338;2023-07-31T03:42:06;28.02;;;9.77;;
70008;SDS011;59542;37.950;-122.338;2023-07-31T03:44:32;21.17;;;8.73;;
70008;SDS011;59542;37.950;-122.338;2023-07-31T03:46:58;27.63;;;9.60;;
70008;SDS011;59542;37.950;-122.338;2023-07-31T03:49:25;24.38;;;8.60;;
70008;SDS011;59542;37.950;-122.338;2023-07-31T03:51:51;31.95;;;8.55;;
70008;SDS011;59542;37.950;-122.338;2023-07-31T03:54:17;27.60;;;8.77;;
70008;SDS011;59542;37.950;-122.338;2023-07-31T03:56:43;26.45;;;8.05;;
70008;SDS011;59542;37.950;-122.338;2023-07-31T03:59:10;29.35;;;8.65;;
70008;SDS011;59542;37.950;-122.338;2023-07-31T04:01:36;29.02;;;8.50;;
70008;SDS011;59542;37.950;-122.338;2023-07-31T04:04:04;24.90;;;8.57;;
70008;SDS011;59542;37.950;-122.338;2023-07-31T04:06:31;25.42;;;9.35;;
70008;SDS011;59542;37.950;-122.338;2023-07-31T04:08:57;24.48;;;10.07;;
70008;SDS011;59542;37.950;-122.338;2023-07-31T04:11:23;32.63;;;9.70;;
70008;SDS011;59542;37.950;-122.338;2023-07-31T04:13:49;21.85;;;8.70;;
70008;SDS011;59542;37.950;-122.338;2023-07-31T04:16:16;31.75;;;10.25;;
70008;SDS011;59542;37.950;-122.338;2023-07-31T04:18:42;23.88;;;9.18;;
70008;SDS011;59542;37.950;-122.338;2023-07-31T04:21:08;25.77;;;9.10;;
70008;SDS011;59542;37.950;-122.338;2023-07-31T04:23:35;21.10;;;8.60;;
70008;SDS011;59542;37.950;-122.338;2023-07-31T04:26:01;30.05;;;9.10;;
70008;SDS011;59542;37.950;-122.338;2023-07-31T04:28:27;20.98;;;8.35;;
70008;SDS011;59542;37.950;-122.338;2023-07-31T04:30:56;22.83;;;9.05;;
70008;SDS011;59542;37.950;-122.338;2023-07-31T04:33:23;20.20;;;8.02;;
70008;SDS011;59542;37.950;-122.338;2023-07-31T04:35:50;25.73;;;9.00;;
70008;SDS011;59542;37.950;-122.338;2023-07-31T04:38:20;26.15;;;9.18;;
70008;SDS011;59542;37.950;-122.338;2023-07-31T04:40:47;21.25;;;8.85;;
70008;SDS011;59542;37.950;-122.338;2023-07-31T04:43:13;29.98;;;9.48;;
70008;SDS011;59542;37.950;-122.338;2023-07-31T04:45:42;25.80;;;8.85;;
70008;SDS011;59542;37.950;-122.338;2023-07-31T04:48:12;23.02;;;8.63;;
70008;SDS011;59542;37.950;-122.338;2023-07-31T04:50:38;23.30;;;8.75;;
70008;SDS011;59542;37.950;-122.338;2023-07-31T04:53:04;24.05;;;8.63;;
70008;SDS011;59542;37.950;-122.338;2023-07-31T04:55:30;24.25;;;9.00;;
70008;SDS011;59542;37.950;-122.338;2023-07-31T04:57:58;25.65;;;9.30;;
70008;SDS011;59542;37.950;-122.338;2023-07-31T05:00:25;21.30;;;8.05;;
70008;SDS011;59542;37.950;-122.338;2023-07-31T05:02:51;26.63;;;8.98;;
70008;SDS011;59542;37.950;-122.338;2023-07-31T05:05:17;21.67;;;9.07;;
70008;SDS011;59542;37.950;-122.338;2023-07-31T05:07:43;26.38;;;9.05;;
70008;SDS011;59542;37.950;-122.338;2023-07-31T05:10:10;21.13;;;7.90;;
70008;SDS011;59542;37.950;-122.338;2023-07-31T05:12:36;22.38;;;8.32;;
70008;SDS011;59542;37.950;-122.338;2023-07-31T05:15:03;25.77;;;8.50;;
70008;SDS011;59542;37.950;-122.338;2023-07-31T05:17:30;29.98;;;8.85;;
70008;SDS011;59542;37.950;-122.338;2023-07-31T05:19:57;31.02;;;9.55;;
70008;SDS011;59542;37.950;-122.338;2023-07-31T05:22:23;26.60;;;9.00;;
70008;SDS011;59542;37.950;-122.338;2023-07-31T05:24:49;23.83;;;8.48;;
70008;SDS011;59542;37.950;-122.338;2023-07-31T05:27:16;25.40;;;9.40;;
70008;SDS011;59542;37.950;-122.338;2023-07-31T05:29:44;24.52;;;8.50;;
70008;SDS011;59542;37.950;-122.338;2023-07-31T05:32:10;21.08;;;7.57;;
70008;SDS011;59542;37.950;-122.338;2023-07-31T05:34:37;24.00;;;9.05;;
70008;SDS011;59542;37.950;-122.338;2023-07-31T05:37:03;31.33;;;10.63;;
70008;SDS011;59542;37.950;-122.338;2023-07-31T05:39:31;26.48;;;8.88;;
70008;SDS011;59542;37.950;-122.338;2023-07-31T05:41:57;29.92;;;9.55;;
70008;SDS011;59542;37.950;-122.338;2023-07-31T05:44:23;31.55;;;9.82;;
70008;SDS011;59542;37.950;-122.338;2023-07-31T05:46:50;28.05;;;9.55;;
70008;SDS011;59542;37.950;-122.338;2023-07-31T05:49:16;26.90;;;9.23;;
70008;SDS011;59542;37.950;-122.338;2023-07-31T05:51:42;25.30;;;9.13;;
70008;SDS011;59542;37.950;-122.338;2023-07-31T05:54:08;34.83;;;10.45;;
70008;SDS011;59542;37.950;-122.338;2023-07-31T05:56:34;29.90;;;9.30;;
70008;SDS011;59542;37.950;-122.338;2023-07-31T05:59:01;24.63;;;9.50;;
70008;SDS011;59542;37.950;-122.338;2023-07-31T06:01:28;27.52;;;9.85;;
70008;SDS011;59542;37.950;-122.338;2023-07-31T06:03:54;32.78;;;9.63;;
70008;SDS011;59542;37.950;-122.338;2023-07-31T06:06:20;28.10;;;9.70;;
70008;SDS011;59542;37.950;-122.338;2023-07-31T06:08:46;29.27;;;9.63;;
70008;SDS011;59542;37.950;-122.338;2023-07-31T06:11:13;30.77;;;9.23;;
70008;SDS011;59542;37.950;-122.338;2023-07-31T06:13:39;22.90;;;10.23;;
70008;SDS011;59542;37.950;-122.338;2023-07-31T06:16:05;28.10;;;9.70;;
70008;SDS011;59542;37.950;-122.338;2023-07-31T06:18:32;22.05;;;9.43;;
70008;SDS011;59542;37.950;-122.338;2023-07-31T06:20:58;29.13;;;9.45;;
70008;SDS011;59542;37.950;-122.338;2023-07-31T06:23:25;26.38;;;9.80;;
70008;SDS011;59542;37.950;-122.338;2023-07-31T06:25:51;23.00;;;9.88;;
70008;SDS011;59542;37.950;-122.338;2023-07-31T06:28:17;22.85;;;8.82;;
70008;SDS011;59542;37.950;-122.338;2023-07-31T06:30:43;26.52;;;8.70;;
70008;SDS011;59542;37.950;-122.338;2023-07-31T06:33:10;24.88;;;9.48;;
70008;SDS011;59542;37.950;-122.338;2023-07-31T06:35:36;29.55;;;9.77;;
70008;SDS011;59542;37.950;-122.338;2023-07-31T06:38:02;24.70;;;9.45;;
70008;SDS011;59542;37.950;-122.338;2023-07-31T06:40:29;22.52;;;9.52;;
70008;SDS011;59542;37.950;-122.338;2023-07-31T06:42:55;27.95;;;9.13;;
70008;SDS011;59542;37.950;-122.338;2023-07-31T06:45:22;28.23;;;9.20;;
70008;SDS011;59542;37.950;-122.338;2023-07-31T06:47:48;30.58;;;9.77;;
70008;SDS011;59542;37.950;-122.338;2023-07-31T06:50:14;21.65;;;8.65;;
70008;SDS011;59542;37.950;-122.338;2023-07-31T06:52:40;24.38;;;8.90;;
70008;SDS011;59542;37.950;-122.338;2023-07-31T06:55:17;31.30;;;9.43;;
70008;SDS011;59542;37.950;-122.338;2023-07-31T06:57:44;31.25;;;9.43;;
70008;SDS011;59542;37.950;-122.338;2023-07-31T07:00:11;27.73;;;9.63;;
70008;SDS011;59542;37.950;-122.338;2023-07-31T07:02:38;29.60;;;9.70;;
70008;SDS011;59542;37.950;-122.338;2023-07-31T07:05:06;28.35;;;10.52;;
70008;SDS011;59542;37.950;-122.338;2023-07-31T07:07:33;21.17;;;9.40;;
70008;SDS011;59542;37.950;-122.338;2023-07-31T07:09:59;19.48;;;9.07;;
70008;SDS011;59542;37.950;-122.338;2023-07-31T07:12:27;22.58;;;9.07;;
70008;SDS011;59542;37.950;-122.338;2023-07-31T07:14:55;17.58;;;8.98;;
70008;SDS011;59542;37.950;-122.338;2023-07-31T07:17:22;25.38;;;9.25;;
70008;SDS011;59542;37.950;-122.338;2023-07-31T07:19:49;32.85;;;11.13;;
70008;SDS011;59542;37.950;-122.338;2023-07-31T07:22:16;26.85;;;9.68;;
70008;SDS011;59542;37.950;-122.338;2023-07-31T07:24:42;28.17;;;9.38;;
70008;SDS011;59542;37.950;-122.338;2023-07-31T07:27:08;23.60;;;9.10;;
70008;SDS011;59542;37.950;-122.338;2023-07-31T07:29:34;30.25;;;10.52;;
70008;SDS011;59542;37.950;-122.338;2023-07-31T07:32:01;23.73;;;10.43;;
70008;SDS011;59542;37.950;-122.338;2023-07-31T07:34:28;23.42;;;10.02;;
70008;SDS011;59542;37.950;-122.338;2023-07-31T07:36:54;24.08;;;10.43;;
70008;SDS011;59542;37.950;-122.338;2023-07-31T07:39:21;29.60;;;10.25;;
70008;SDS011;59542;37.950;-122.338;2023-07-31T07:41:47;25.25;;;9.98;;
70008;SDS011;59542;37.950;-122.338;2023-07-31T07:44:13;23.38;;;10.23;;
70008;SDS011;59542;37.950;-122.338;2023-07-31T07:46:40;24.55;;;8.52;;
70008;SDS011;59542;37.950;-122.338;2023-07-31T07:49:07;24.38;;;9.20;;
70008;SDS011;59542;37.950;-122.338;2023-07-31T07:51:33;27.10;;;9.52;;
70008;SDS011;59542;37.950;-122.338;2023-07-31T07:53:59;24.35;;;9.07;;
70008;SDS011;59542;37.950;-122.338;2023-07-31T07:56:26;26.48;;;9.02;;
70008;SDS011;59542;37.950;-122.338;2023-07-31T07:58:53;26.13;;;8.23;;
70008;SDS011;59542;37.950;-122.338;2023-07-31T08:01:20;29.67;;;9.50;;
70008;SDS011;59542;37.950;-122.338;2023-07-31T08:03:47;21.70;;;8.27;;
70008;SDS011;59542;37.950;-122.338;2023-07-31T08:06:14;33.50;;;10.88;;
70008;SDS011;59542;37.950;-122.338;2023-07-31T08:08:40;31.83;;;9.18;;
70008;SDS011;59542;37.950;-122.338;2023-07-31T08:11:06;29.52;;;9.73;;
70008;SDS011;59542;37.950;-122.338;2023-07-31T08:13:33;24.65;;;9.00;;
70008;SDS011;59542;37.950;-122.338;2023-07-31T08:15:59;29.10;;;9.52;;
70008;SDS011;59542;37.950;-122.338;2023-07-31T08:18:25;25.40;;;9.57;;
70008;SDS011;59542;37.950;-122.338;2023-07-31T08:20:51;22.35;;;8.68;;
70008;SDS011;59542;37.950;-122.338;2023-07-31T08:23:18;23.60;;;8.90;;
70008;SDS011;59542;37.950;-122.338;2023-07-31T08:25:44;25.35;;;9.07;;
70008;SDS011;59542;37.950;-122.338;2023-07-31T08:28:11;21.80;;;9.10;;
70008;SDS011;59542;37.950;-122.338;2023-07-31T08:30:38;29.92;;;9.27;;
70008;SDS011;59542;37.950;-122.338;2023-07-31T08:33:04;22.88;;;8.73;;
70008;SDS011;59542;37.950;-122.338;2023-07-31T08:35:30;24.27;;;8.95;;
70008;SDS011;59542;37.950;-122.338;2023-07-31T08:37:56;21.83;;;8.50;;
70008;SDS011;59542;37.950;-122.338;2023-07-31T08:40:23;24.45;;;8.90;;
70008;SDS011;59542;37.950;-122.338;2023-07-31T08:42:50;26.35;;;9.10;;
70008;SDS011;59542;37.950;-122.338;2023-07-31T08:45:19;26.75;;;9.05;;
70008;SDS011;59542;37.950;-122.338;2023-07-31T08:47:47;24.90;;;8.68;;
70008;SDS011;59542;37.950;-122.338;2023-07-31T08:50:14;26.95;;;8.38;;
70008;SDS011;59542;37.950;-122.338;2023-07-31T08:52:43;26.65;;;8.82;;
70008;SDS011;59542;37.950;-122.338;2023-07-31T08:55:09;25.83;;;9.05;;
70008;SDS011;59542;37.950;-122.338;2023-07-31T08:57:37;27.50;;;8.98;;
70008;SDS011;59542;37.950;-122.338;2023-07-31T09:00:04;23.15;;;8.30;;
70008;SDS011;59542;37.950;-122.338;2023-07-31T09:05:23;24.48;;;8.85;;
70008;SDS011;59542;37.950;-122.338;2023-07-31T09:07:51;30.25;;;9.68;;
70008;SDS011;59542;37.950;-122.338;2023-07-31T09:10:19;29.15;;;9.75;;
70008;SDS011;59542;37.950;-122.338;2023-07-31T09:12:45;23.17;;;8.20;;
70008;SDS011;59542;37.950;-122.338;2023-07-31T09:15:13;26.05;;;8.57;;
70008;SDS011;59542;37.950;-122.338;2023-07-31T09:17:40;26.58;;;8.90;;
70008;SDS011;59542;37.950;-122.338;2023-07-31T09:20:13;14.82;;;7.95;;
70008;SDS011;59542;37.950;-122.338;2023-07-31T09:22:43;26.08;;;8.65;;
70008;SDS011;59542;37.950;-122.338;2023-07-31T09:25:19;31.77;;;9.05;;
70008;SDS011;59542;37.950;-122.338;2023-07-31T09:30:28;26.20;;;9.82;;
70008;SDS011;59542;37.950;-122.338;2023-07-31T09:33:01;18.27;;;8.05;;
70008;SDS011;59542;37.950;-122.338;2023-07-31T09:35:32;25.10;;;8.70;;
70008;SDS011;59542;37.950;-122.338;2023-07-31T09:38:02;27.27;;;8.52;;
70008;SDS011;59542;37.950;-122.338;2023-07-31T09:40:32;22.17;;;8.20;;
70008;SDS011;59542;37.950;-122.338;2023-07-31T09:43:06;23.65;;;8.55;;
70008;SDS011;59542;37.950;-122.338;2023-07-31T09:45:36;23.20;;;8.95;;
70008;SDS011;59542;37.950;-122.338;2023-07-31T09:48:12;25.83;;;9.07;;
70008;SDS011;59542;37.950;-122.338;2023-07-31T09:50:43;36.38;;;10.68;;
70008;SDS011;59542;37.950;-122.338;2023-07-31T09:53:11;32.38;;;9.38;;
70008;SDS011;59542;37.950;-122.338;2023-07-31T09:55:38;22.55;;;8.40;;
70008;SDS011;59542;37.950;-122.338;2023-07-31T09:58:06;24.00;;;8.27;;
70008;SDS011;59542;37.950;-122.338;2023-07-31T10:00:34;25.88;;;8.70;;
70008;SDS011;59542;37.950;-122.338;2023-07-31T10:03:04;23.58;;;8.82;;
70008;SDS011;59542;37.950;-122.338;2023-07-31T10:05:35;25.33;;;9.77;;
70008;SDS011;59542;37.950;-122.338;2023-07-31T10:08:03;26.05;;;8.50;;
70008;SDS011;59542;37.950;-122.338;2023-07-31T10:10:31;28.80;;;8.82;;
70008;SDS011;59542;37.950;-122.338;2023-07-31T10:12:59;25.08;;;8.45;;
70008;SDS011;59542;37.950;-122.338;2023-07-31T10:15:26;28.83;;;9.18;;
70008;SDS011;59542;37.950;-122.338;2023-07-31T10:17:54;29.10;;;10.02;;
70008;SDS011;59542;37.950;-122.338;2023-07-31T10:20:22;20.85;;;7.55;;
70008;SDS011;59542;37.950;-122.338;2023-07-31T10:22:48;25.50;;;8.10;;
70008;SDS011;59542;37.950;-122.338;2023-07-31T10:25:16;25.63;;;9.02;;
70008;SDS011;59542;37.950;-122.338;2023-07-31T10:27:45;23.20;;;8.63;;
70008;SDS011;59542;37.950;-122.338;2023-07-31T10:30:16;28.10;;;9.25;;
70008;SDS011;59542;37.950;-122.338;2023-07-31T10:32:44;23.60;;;8.63;;
70008;SDS011;59542;37.950;-122.338;2023-07-31T10:35:12;24.98;;;8.73;;
70008;SDS011;59542;37.950;-122.338;2023-07-31T10:37:40;26.05;;;8.50;;
70008;SDS011;59542;37.950;-122.338;2023-07-31T10:40:10;24.38;;;9.00;;
70008;SDS011;59542;37.950;-122.338;2023-07-31T10:42:47;19.65;;;8.30;;
70008;SDS011;59542;37.950;-122.338;2023-07-31T10:45:14;23.23;;;8.27;;
70008;SDS011;59542;37.950;-122.338;2023-07-31T10:48:00;26.42;;;8.75;;
70008;SDS011;59542;37.950;-122.338;2023-07-31T10:50:32;25.73;;;9.38;;
70008;SDS011;59542;37.950;-122.338;2023-07-31T10:53:02;27.55;;;8.73;;
70008;SDS011;59542;37.950;-122.338;2023-07-31T10:57:58;21.85;;;8.45;;
70008;SDS011;59542;37.950;-122.338;2023-07-31T11:00:44;25.65;;;7.88;;
70008;SDS011;59542;37.950;-122.338;2023-07-31T11:03:15;26.33;;;9.43;;
70008;SDS011;59542;37.950;-122.338;2023-07-31T11:05:48;34.30;;;9.55;;
70008;SDS011;59542;37.950;-122.338;2023-07-31T11:08:27;23.05;;;8.82;;
70008;SDS011;59542;37.950;-122.338;2023-07-31T11:13:31;26.17;;;9.65;;
70008;SDS011;59542;37.950;-122.338;2023-07-31T11:16:00;33.67;;;9.25;;
70008;SDS011;59542;37.950;-122.338;2023-07-31T11:18:26;28.40;;;9.63;;
70008;SDS011;59542;37.950;-122.338;2023-07-31T11:20:53;28.88;;;9.05;;
70008;SDS011;59542;37.950;-122.338;2023-07-31T11:23:19;33.47;;;9.50;;
70008;SDS011;59542;37.950;-122.338;2023-07-31T11:25:47;30.98;;;9.88;;
70008;SDS011;59542;37.950;-122.338;2023-07-31T11:28:14;25.45;;;7.88;;
70008;SDS011;59542;37.950;-122.338;2023-07-31T11:30:42;22.77;;;8.30;;
70008;SDS011;59542;37.950;-122.338;2023-07-31T11:33:10;30.60;;;9.32;;
70008;SDS011;59542;37.950;-122.338;2023-07-31T11:35:45;31.58;;;9.95;;
70008;SDS011;59542;37.950;-122.338;2023-07-31T11:40:56;29.92;;;8.93;;
70008;SDS011;59542;37.950;-122.338;2023-07-31T11:43:23;25.42;;;8.85;;
70008;SDS011;59542;37.950;-122.338;2023-07-31T11:45:56;27.77;;;8.57;;
70008;SDS011;59542;37.950;-122.338;2023-07-31T11:48:25;31.07;;;9.30;;
70008;SDS011;59542;37.950;-122.338;2023-07-31T11:50:57;27.52;;;9.32;;
70008;SDS011;59542;37.950;-122.338;2023-07-31T11:53:26;35.35;;;8.70;;
70008;SDS011;59542;37.950;-122.338;2023-07-31T11:56:03;30.20;;;10.35;;
70008;SDS011;59542;37.950;-122.338;2023-07-31T11:58:32;20.63;;;8.40;;
70008;SDS011;59542;37.950;-122.338;2023-07-31T12:01:00;24.67;;;8.77;;
70008;SDS011;59542;37.950;-122.338;2023-07-31T12:03:27;26.17;;;9.57;;
70008;SDS011;59542;37.950;-122.338;2023-07-31T12:05:54;34.47;;;9.73;;
70008;SDS011;59542;37.950;-122.338;2023-07-31T12:08:21;24.98;;;9.30;;
70008;SDS011;59542;37.950;-122.338;2023-07-31T12:10:52;27.67;;;8.15;;
70008;SDS011;59542;37.950;-122.338;2023-07-31T12:15:49;29.00;;;9.43;;
70008;SDS011;59542;37.950;-122.338;2023-07-31T12:18:20;23.38;;;8.98;;
70008;SDS011;59542;37.950;-122.338;2023-07-31T12:20:57;28.42;;;9.65;;
70008;SDS011;59542;37.950;-122.338;2023-07-31T12:23:28;28.02;;;9.32;;
70008;SDS011;59542;37.950;-122.338;2023-07-31T12:28:42;25.55;;;9.40;;
70008;SDS011;59542;37.950;-122.338;2023-07-31T12:33:43;32.00;;;8.93;;
70008;SDS011;59542;37.950;-122.338;2023-07-31T12:36:11;30.13;;;9.43;;
70008;SDS011;59542;37.950;-122.338;2023-07-31T12:38:42;26.02;;;9.15;;
70008;SDS011;59542;37.950;-122.338;2023-07-31T12:41:08;30.25;;;10.15;;
70008;SDS011;59542;37.950;-122.338;2023-07-31T12:43:35;28.60;;;8.93;;
70008;SDS011;59542;37.950;-122.338;2023-07-31T12:46:03;23.85;;;9.45;;
70008;SDS011;59542;37.950;-122.338;2023-07-31T12:48:29;25.52;;;9.00;;
70008;SDS011;59542;37.950;-122.338;2023-07-31T12:50:55;26.75;;;9.10;;
70008;SDS011;59542;37.950;-122.338;2023-07-31T12:53:22;26.08;;;9.27;;
70008;SDS011;59542;37.950;-122.338;2023-07-31T12:55:48;27.83;;;9.80;;
70008;SDS011;59542;37.950;-122.338;2023-07-31T12:58:15;33.03;;;9.02;;
70008;SDS011;59542;37.950;-122.338;2023-07-31T13:00:41;32.60;;;9.93;;
70008;SDS011;59542;37.950;-122.338;2023-07-31T13:03:08;27.70;;;9.38;;
70008;SDS011;59542;37.950;-122.338;2023-07-31T13:05:34;26.65;;;9.25;;
70008;SDS011;59542;37.950;-122.338;2023-07-31T13:08:00;29.38;;;8.48;;
70008;SDS011;59542;37.950;-122.338;2023-07-31T13:10:27;26.33;;;9.48;;
70008;SDS011;59542;37.950;-122.338;2023-07-31T13:12:54;25.25;;;8.63;;
70008;SDS011;59542;37.950;-122.338;2023-07-31T13:15:21;23.35;;;8.80;;
70008;SDS011;59542;37.950;-122.338;2023-07-31T13:17:47;29.15;;;9.70;;
70008;SDS011;59542;37.950;-122.338;2023-07-31T13:20:14;30.92;;;9.43;;
70008;SDS011;59542;37.950;-122.338;2023-07-31T13:22:40;24.83;;;9.05;;
70008;SDS011;59542;37.950;-122.338;2023-07-31T13:25:07;24.63;;;9.38;;
70008;SDS011;59542;37.950;-122.338;2023-07-31T13:27:34;24.25;;;9.70;;
70008;SDS011;59542;37.950;-122.338;2023-07-31T13:30:01;31.42;;;9.23;;
70008;SDS011;59542;37.950;-122.338;2023-07-31T13:32:29;25.77;;;8.98;;
70008;SDS011;59542;37.950;-122.338;2023-07-31T13:34:55;19.42;;;8.35;;
70008;SDS011;59542;37.950;-122.338;2023-07-31T13:37:22;35.15;;;9.40;;
70008;SDS011;59542;37.950;-122.338;2023-07-31T13:39:48;27.85;;;9.05;;
70008;SDS011;59542;37.950;-122.338;2023-07-31T13:42:14;26.15;;;7.93;;
70008;SDS011;59542;37.950;-122.338;2023-07-31T13:44:41;26.20;;;9.10;;
70008;SDS011;59542;37.950;-122.338;2023-07-31T13:47:08;20.88;;;8.70;;
70008;SDS011;59542;37.950;-122.338;2023-07-31T13:49:35;23.67;;;8.75;;
70008;SDS011;59542;37.950;-122.338;2023-07-31T13:52:01;22.95;;;9.23;;
70008;SDS011;59542;37.950;-122.338;2023-07-31T13:54:28;22.30;;;8.27;;
70008;SDS011;59542;37.950;-122.338;2023-07-31T13:56:54;26.30;;;8.60;;
70008;SDS011;59542;37.950;-122.338;2023-07-31T13:59:21;23.00;;;7.72;;
70008;SDS011;59542;37.950;-122.338;2023-07-31T14:01:47;25.02;;;8.90;;
70008;SDS011;59542;37.950;-122.338;2023-07-31T14:04:14;22.52;;;8.27;;
70008;SDS011;59542;37.950;-122.338;2023-07-31T14:06:40;25.88;;;8.95;;
70008;SDS011;59542;37.950;-122.338;2023-07-31T14:09:06;22.42;;;7.78;;
70008;SDS011;59542;37.950;-122.338;2023-07-31T14:11:33;33.33;;;9.27;;
70008;SDS011;59542;37.950;-122.338;2023-07-31T14:13:59;26.48;;;7.70;;
70008;SDS011;59542;37.950;-122.338;2023-07-31T14:16:29;29.20;;;8.85;;
70008;SDS011;59542;37.950;-122.338;2023-07-31T14:18:56;22.60;;;9.60;;
70008;SDS011;59542;37.950;-122.338;2023-07-31T14:21:24;24.58;;;8.38;;
70008;SDS011;59542;37.950;-122.338;2023-07-31T14:23:51;26.77;;;8.50;;
70008;SDS011;59542;37.950;-122.338;2023-07-31T14:26:18;24.98;;;8.35;;